createdAt,value
2022-10-21T00:00:13.878Z,13.55
2022-10-21T00:02:15.480Z,13.57
2022-10-21T00:04:17.068Z,11.60
2022-10-21T00:06:18.702Z,12.95
2022-10-21T00:08:20.856Z,15.43
2022-10-21T00:10:22.657Z,15.93
2022-10-21T00:12:24.327Z,16.65
2022-10-21T00:14:25.933Z,12.30
2022-10-21T00:16:27.541Z,15.18
2022-10-21T00:18:29.730Z,17.95
2022-10-21T00:20:33.637Z,15.15
2022-10-21T00:22:38.033Z,14.73
2022-10-21T00:24:39.852Z,16.30
2022-10-21T00:26:41.474Z,15.73
2022-10-21T00:28:43.444Z,14.82
2022-10-21T00:30:46.062Z,15.07
2022-10-21T00:32:47.670Z,18.13
2022-10-21T00:34:49.292Z,14.73
2022-10-21T00:36:50.957Z,14.93
2022-10-21T00:38:53.609Z,17.25
2022-10-21T00:40:55.428Z,15.80
2022-10-21T00:42:57.034Z,15.52
2022-10-21T00:45:07.438Z,12.45
2022-10-21T00:47:16.125Z,13.10
2022-10-21T00:49:36.756Z,15.57
2022-10-21T00:51:38.640Z,11.82
2022-10-21T00:53:43.030Z,11.63
2022-10-21T00:55:51.886Z,10.55
2022-10-21T00:57:53.809Z,12.43
2022-10-21T00:59:59.355Z,12.88
2022-10-21T01:02:00.932Z,12.05
2022-10-21T01:04:03.965Z,12.00
2022-10-21T01:06:08.802Z,13.70
2022-10-21T01:08:10.571Z,16.00
2022-10-21T01:10:12.289Z,12.55
2022-10-21T01:12:36.947Z,16.15
2022-10-21T01:16:48.325Z,18.55
2022-10-21T01:19:01.991Z,16.42
2022-10-21T01:21:18.892Z,14.83
2022-10-21T01:23:28.459Z,15.13
2022-10-21T01:26:00.339Z,14.85
2022-10-21T01:28:36.196Z,16.35
2022-10-21T01:30:58.131Z,16.67
2022-10-21T01:33:08.610Z,15.38
2022-10-21T01:35:25.345Z,16.65
2022-10-21T01:37:48.812Z,19.88
2022-10-21T01:39:53.644Z,17.52
2022-10-21T01:41:59.835Z,18.60
2022-10-21T01:44:10.055Z,21.63
2022-10-21T01:46:25.036Z,21.48
2022-10-21T01:48:33.689Z,23.15
2022-10-21T01:50:39.554Z,18.10
2022-10-21T01:52:42.916Z,19.17
2022-10-21T01:54:46.403Z,18.90
2022-10-21T01:56:48.999Z,17.67
2022-10-21T01:58:51.105Z,21.23
2022-10-21T02:00:54.398Z,16.98
2022-10-21T02:02:56.241Z,18.05
2022-10-21T02:04:59.504Z,16.58
2022-10-21T02:07:01.408Z,16.90
2022-10-21T02:09:03.213Z,17.55
2022-10-21T02:11:07.586Z,18.20
2022-10-21T02:13:11.537Z,20.10
2022-10-21T02:15:15.239Z,18.48
2022-10-21T02:17:18.901Z,16.65
2022-10-21T02:19:21.165Z,16.92
2022-10-21T02:21:23.941Z,19.20
2022-10-21T02:23:39.339Z,16.38
2022-10-21T02:25:42.754Z,15.93
2022-10-21T02:27:44.772Z,17.85
2022-10-21T02:29:47.523Z,15.82
2022-10-21T02:32:15.686Z,17.05
2022-10-21T02:34:27.721Z,14.85
2022-10-21T02:36:34.132Z,14.75
2022-10-21T02:38:52.871Z,17.80
2022-10-21T02:40:56.261Z,16.00
2022-10-21T02:43:13.958Z,14.70
2022-10-21T02:45:16.839Z,19.02
2022-10-21T02:47:18.550Z,13.25
2022-10-21T02:49:20.160Z,16.17
2022-10-21T02:51:21.845Z,16.83
2022-10-21T02:53:23.548Z,14.52
2022-10-21T02:55:25.238Z,24.55
2022-10-21T02:57:26.829Z,20.70
2022-10-21T02:59:28.375Z,15.75
2022-10-21T03:01:30.140Z,17.55
2022-10-21T03:03:31.972Z,15.82
2022-10-21T03:05:33.591Z,17.90
2022-10-21T03:07:36.052Z,13.70
2022-10-21T03:09:37.866Z,15.88
2022-10-21T03:11:39.524Z,15.27
2022-10-21T03:13:41.199Z,15.48
2022-10-21T03:15:42.892Z,17.20
2022-10-21T03:17:44.649Z,22.13
2022-10-21T03:19:46.250Z,17.63
2022-10-21T03:21:47.936Z,21.77
2022-10-21T03:23:49.575Z,22.33
2022-10-21T03:25:51.249Z,18.70
2022-10-21T03:27:52.936Z,20.05
2022-10-21T03:29:54.601Z,22.08
2022-10-21T03:31:56.258Z,18.85
2022-10-21T03:33:57.987Z,21.95
2022-10-21T03:35:59.613Z,20.48
2022-10-21T03:38:01.324Z,20.13
2022-10-21T03:40:05.420Z,17.65
2022-10-21T03:42:09.154Z,19.42
2022-10-21T03:44:10.825Z,19.55
2022-10-21T03:46:12.416Z,16.08
2022-10-21T03:48:14.167Z,18.80
2022-10-21T03:50:18.366Z,19.05
2022-10-21T03:52:23.877Z,23.17
2022-10-21T03:54:25.525Z,19.88
2022-10-21T03:56:27.318Z,18.50
2022-10-21T03:58:28.918Z,16.35
2022-10-21T04:00:31.720Z,19.50
2022-10-21T04:02:33.575Z,17.53
2022-10-21T04:04:35.234Z,23.15
2022-10-21T04:06:39.280Z,18.65
2022-10-21T04:08:40.992Z,19.98
2022-10-21T04:10:42.739Z,16.75
2022-10-21T04:12:44.383Z,22.58
2022-10-21T04:14:46.014Z,19.60
2022-10-21T04:16:48.017Z,21.00
2022-10-21T04:18:49.826Z,24.40
2022-10-21T04:20:51.452Z,20.83
2022-10-21T04:22:53.076Z,18.67
2022-10-21T04:24:54.765Z,19.45
2022-10-21T04:26:56.780Z,19.95
2022-10-21T04:28:58.396Z,21.15
2022-10-21T04:31:00.087Z,22.00
2022-10-21T04:33:01.938Z,22.17
2022-10-21T04:35:03.764Z,21.92
2022-10-21T04:37:05.517Z,20.92
2022-10-21T04:39:07.360Z,25.35
2022-10-21T04:41:08.939Z,18.92
2022-10-21T04:43:10.498Z,22.83
2022-10-21T04:45:12.326Z,21.35
2022-10-21T04:47:13.889Z,20.67
2022-10-21T04:49:15.515Z,27.77
2022-10-21T04:51:17.256Z,23.30
2022-10-21T04:53:18.953Z,22.98
2022-10-21T04:55:20.550Z,22.92
2022-10-21T04:57:22.156Z,24.80
2022-10-21T04:59:23.769Z,20.60
2022-10-21T05:01:25.594Z,22.15
2022-10-21T05:03:27.235Z,27.80
2022-10-21T05:05:28.977Z,26.60
2022-10-21T05:07:30.682Z,27.05
2022-10-21T05:09:32.317Z,20.42
2022-10-21T05:11:33.904Z,23.30
2022-10-21T05:13:35.503Z,19.15
2022-10-21T05:15:37.095Z,19.25
2022-10-21T05:17:39.024Z,24.95
2022-10-21T05:19:40.910Z,27.95
2022-10-21T05:21:42.623Z,22.10
2022-10-21T05:23:44.281Z,21.58
2022-10-21T05:25:46.683Z,21.52
2022-10-21T05:27:48.372Z,23.25
2022-10-21T05:29:50.006Z,20.30
2022-10-21T05:31:52.007Z,28.88
2022-10-21T05:33:53.622Z,26.40
2022-10-21T05:36:01.070Z,20.20
2022-10-21T05:38:04.461Z,38.08
2022-10-21T05:40:06.893Z,37.55
2022-10-21T05:42:08.499Z,34.08
2022-10-21T05:44:10.337Z,30.13
2022-10-21T05:46:11.962Z,31.25
2022-10-21T05:48:17.803Z,33.53
2022-10-21T05:50:19.762Z,37.60
2022-10-21T05:52:21.481Z,25.27
2022-10-21T05:54:23.256Z,31.40
2022-10-21T05:56:25.010Z,28.10
2022-10-21T05:58:27.679Z,24.25
2022-10-21T06:00:29.449Z,28.55
2022-10-21T06:02:31.126Z,18.38
2022-10-21T06:04:37.790Z,21.05
2022-10-21T06:06:40.505Z,24.63
2022-10-21T06:08:42.144Z,26.23
2022-10-21T06:10:44.553Z,23.80
2022-10-21T06:12:46.275Z,24.95
2022-10-21T06:14:47.855Z,24.52
2022-10-21T06:16:49.710Z,21.33
2022-10-21T06:18:51.408Z,24.83
2022-10-21T06:20:53.199Z,27.33
2022-10-21T06:22:54.844Z,23.73
2022-10-21T06:24:56.414Z,29.23
2022-10-21T06:26:58.044Z,23.85
2022-10-21T06:28:59.769Z,22.80
2022-10-21T06:31:01.556Z,25.52
2022-10-21T06:33:03.219Z,24.67
2022-10-21T06:35:05.080Z,25.42
2022-10-21T06:37:06.667Z,23.05
2022-10-21T06:39:08.661Z,23.50
2022-10-21T06:41:13.639Z,26.38
2022-10-21T06:43:16.762Z,26.25
2022-10-21T06:45:18.470Z,35.80
2022-10-21T06:47:20.112Z,28.00
2022-10-21T06:49:21.747Z,27.30
2022-10-21T06:51:24.591Z,25.05
2022-10-21T06:53:26.316Z,28.40
2022-10-21T06:55:27.961Z,29.80
2022-10-21T06:57:29.764Z,25.48
2022-10-21T06:59:31.679Z,23.40
2022-10-21T07:01:48.375Z,21.20
2022-10-21T07:03:55.541Z,23.27
2022-10-21T07:06:00.648Z,25.67
2022-10-21T07:08:02.816Z,18.60
2022-10-21T07:10:05.092Z,22.90
2022-10-21T07:12:06.718Z,26.52
2022-10-21T07:14:08.366Z,18.27
2022-10-21T07:16:39.462Z,18.15
2022-10-21T07:18:42.646Z,21.85
2022-10-21T07:20:44.402Z,19.85
2022-10-21T07:22:46.169Z,21.27
2022-10-21T07:24:47.816Z,21.45
2022-10-21T07:26:49.889Z,26.63
2022-10-21T07:28:52.433Z,21.10
2022-10-21T07:30:54.021Z,20.05
2022-10-21T07:33:01.851Z,24.08
2022-10-21T07:35:03.897Z,22.48
2022-10-21T07:37:05.534Z,20.13
2022-10-21T07:39:10.632Z,20.90
2022-10-21T07:41:24.045Z,22.23
2022-10-21T07:43:25.766Z,25.20
2022-10-21T07:45:27.385Z,18.48
2022-10-21T07:47:29.078Z,18.17
2022-10-21T07:49:30.883Z,17.60
2022-10-21T07:51:32.559Z,20.38
2022-10-21T07:53:34.559Z,19.63
2022-10-21T07:55:36.203Z,19.25
2022-10-21T07:57:37.975Z,22.70
2022-10-21T07:59:39.633Z,22.92
2022-10-21T08:01:44.867Z,21.23
2022-10-21T08:03:47.283Z,19.20
2022-10-21T08:05:48.876Z,18.83
2022-10-21T08:07:50.982Z,19.00
2022-10-21T08:09:52.578Z,28.45
2022-10-21T08:11:54.211Z,20.90
2022-10-21T08:13:57.146Z,20.67
2022-10-21T08:15:59.225Z,18.40
2022-10-21T08:18:00.837Z,20.52
2022-10-21T08:20:02.743Z,17.70
2022-10-21T08:22:04.865Z,21.08
2022-10-21T08:24:06.694Z,21.08
2022-10-21T08:26:10.888Z,21.83
2022-10-21T08:28:12.516Z,18.58
2022-10-21T08:30:15.717Z,18.58
2022-10-21T08:32:17.294Z,19.30
2022-10-21T08:34:18.914Z,23.45
2022-10-21T08:36:23.104Z,18.13
2022-10-21T08:38:24.762Z,23.73
2022-10-21T08:40:30.025Z,20.27
2022-10-21T08:42:31.959Z,20.75
2022-10-21T08:45:09.420Z,18.70
2022-10-21T08:47:21.320Z,21.25
2022-10-21T08:49:30.846Z,23.38
2022-10-21T08:51:36.316Z,18.50
2022-10-21T08:53:41.653Z,22.33
2022-10-21T08:55:45.501Z,21.25
2022-10-21T08:59:52.135Z,22.85
2022-10-21T09:02:16.435Z,26.33
2022-10-21T09:04:52.016Z,21.92
2022-10-21T09:07:02.878Z,20.08
2022-10-21T09:09:14.503Z,21.83
2022-10-21T09:11:19.670Z,17.52
2022-10-21T09:13:38.266Z,21.05
2022-10-21T09:16:01.454Z,23.42
2022-10-21T09:18:21.205Z,18.08
2022-10-21T09:21:20.511Z,25.13
2022-10-21T09:23:58.685Z,17.73
2022-10-21T09:26:01.263Z,23.55
2022-10-21T09:28:28.473Z,24.33
2022-10-21T09:30:30.122Z,24.08
2022-10-21T09:32:38.833Z,17.73
2022-10-21T09:34:49.321Z,18.52
2022-10-21T09:36:52.413Z,16.65
2022-10-21T09:39:01.761Z,28.75
2022-10-21T09:41:06.065Z,18.85
2022-10-21T09:43:16.587Z,22.35
2022-10-21T09:45:35.874Z,19.42
2022-10-21T09:47:37.462Z,24.35
2022-10-21T09:50:05.992Z,18.88
2022-10-21T09:52:03.634Z,17.20
2022-10-21T09:54:10.283Z,27.50
2022-10-21T09:56:24.154Z,22.58
2022-10-21T09:58:27.988Z,18.17
2022-10-21T10:02:49.977Z,18.88
2022-10-21T10:04:51.690Z,17.80
2022-10-21T10:06:53.871Z,16.15
2022-10-21T10:09:14.058Z,15.10
2022-10-21T10:11:18.784Z,17.25
2022-10-21T10:13:20.595Z,18.75
2022-10-21T10:15:30.781Z,18.40
2022-10-21T10:17:37.248Z,15.02
2022-10-21T10:19:38.859Z,16.88
2022-10-21T10:21:40.542Z,16.90
2022-10-21T10:24:02.696Z,17.42
2022-10-21T10:26:04.411Z,22.50
2022-10-21T10:28:08.796Z,16.05
2022-10-21T10:30:14.056Z,14.65
2022-10-21T10:32:16.482Z,18.67
2022-10-21T10:34:23.738Z,15.38
2022-10-21T10:36:29.191Z,15.40
2022-10-21T10:38:53.015Z,15.82
2022-10-21T10:40:56.427Z,19.70
2022-10-21T10:43:07.654Z,17.40
2022-10-21T10:45:20.365Z,16.33
2022-10-21T10:47:26.909Z,16.92
2022-10-21T10:49:35.169Z,15.95
2022-10-21T10:51:36.877Z,16.88
2022-10-21T10:53:38.695Z,13.85
2022-10-21T10:55:44.013Z,20.55
2022-10-21T10:57:59.094Z,17.08
2022-10-21T11:00:19.853Z,17.27
2022-10-21T11:02:39.987Z,19.05
2022-10-21T11:04:43.833Z,13.25
2022-10-21T11:06:51.529Z,18.95
2022-10-21T11:08:55.933Z,15.18
2022-10-21T11:11:01.338Z,16.33
2022-10-21T11:13:05.540Z,15.95
2022-10-21T11:15:12.405Z,20.20
2022-10-21T11:17:17.030Z,14.15
2022-10-21T11:19:43.820Z,17.08
2022-10-21T11:21:53.552Z,15.90
2022-10-21T11:24:16.594Z,19.23
2022-10-21T11:26:34.008Z,17.42
2022-10-21T11:28:47.602Z,16.05
2022-10-21T11:31:21.841Z,17.65
2022-10-21T11:33:44.505Z,21.85
2022-10-21T11:36:15.377Z,15.80
2022-10-21T11:38:29.129Z,17.67
2022-10-21T11:40:36.293Z,15.85
2022-10-21T11:42:43.399Z,19.30
2022-10-21T11:45:12.855Z,25.63
2022-10-21T11:47:42.066Z,15.73
2022-10-21T11:52:48.992Z,18.38
2022-10-21T11:55:10.763Z,15.82
2022-10-21T11:57:29.217Z,12.95
2022-10-21T11:59:57.961Z,16.52
2022-10-21T12:02:17.877Z,16.27
2022-10-21T12:04:28.802Z,17.73
2022-10-21T12:06:45.191Z,17.88
2022-10-21T12:09:06.746Z,16.60
2022-10-21T12:11:22.539Z,18.38
2022-10-21T12:13:33.930Z,18.77
2022-10-21T12:15:41.854Z,14.57
2022-10-21T12:17:44.558Z,16.38
2022-10-21T12:19:54.455Z,16.20
2022-10-21T12:21:56.155Z,15.25
2022-10-21T12:24:34.119Z,19.70
2022-10-21T12:26:40.539Z,18.40
2022-10-21T12:28:57.194Z,15.02
2022-10-21T12:31:13.729Z,20.92
2022-10-21T12:33:25.173Z,20.58
2022-10-21T12:35:46.515Z,14.88
2022-10-21T12:37:53.328Z,14.65
2022-10-21T12:40:09.924Z,16.52
2022-10-21T12:42:15.363Z,14.38
2022-10-21T12:44:21.941Z,15.65
2022-10-21T12:46:26.462Z,18.05
2022-10-21T12:48:34.598Z,18.23
2022-10-21T12:50:36.336Z,15.80
2022-10-21T12:52:39.039Z,16.55
2022-10-21T12:54:54.338Z,13.60
2022-10-21T12:57:01.878Z,13.38
2022-10-21T12:59:06.845Z,13.82
2022-10-21T13:01:34.165Z,12.55
2022-10-21T13:03:45.016Z,14.38
2022-10-21T13:05:46.589Z,13.93
2022-10-21T13:08:20.131Z,14.02
2022-10-21T13:10:25.355Z,17.35
2022-10-21T13:12:31.465Z,14.73
2022-10-21T13:14:48.540Z,14.00
2022-10-21T13:16:50.157Z,15.55
2022-10-21T13:19:06.081Z,16.52
2022-10-21T13:21:23.257Z,16.52
2022-10-21T13:23:32.967Z,12.80
2022-10-21T13:25:38.261Z,15.80
2022-10-21T13:27:40.411Z,18.48
2022-10-21T13:29:47.032Z,18.15
2022-10-21T13:32:14.101Z,18.55
2022-10-21T13:34:28.459Z,16.00
2022-10-21T13:36:42.945Z,20.17
2022-10-21T13:38:53.040Z,18.67
2022-10-21T13:41:05.564Z,17.35
2022-10-21T13:43:16.247Z,24.45
2022-10-21T13:45:30.879Z,20.27
2022-10-21T13:47:35.212Z,18.63
2022-10-21T13:49:36.876Z,19.10
2022-10-21T13:51:45.857Z,28.73
2022-10-21T13:53:48.866Z,13.98
2022-10-21T13:56:23.967Z,14.43
2022-10-21T13:58:26.925Z,15.35
2022-10-21T14:00:30.739Z,17.23
2022-10-21T14:02:32.449Z,15.57
2022-10-21T14:04:34.748Z,16.55
2022-10-21T14:06:40.962Z,12.98
2022-10-21T14:08:44.634Z,18.27
2022-10-21T14:12:49.012Z,13.20
2022-10-21T14:14:51.814Z,17.58
2022-10-21T14:16:56.965Z,14.67
2022-10-21T14:18:59.489Z,16.45
2022-10-21T14:23:21.725Z,17.17
2022-10-21T14:25:23.413Z,17.08
2022-10-21T14:27:30.611Z,16.05
2022-10-21T14:29:35.029Z,15.20
2022-10-21T14:31:36.700Z,14.63
2022-10-21T14:33:43.441Z,13.55
2022-10-21T14:35:45.055Z,29.67
2022-10-21T14:37:49.045Z,25.05
2022-10-21T14:39:50.742Z,16.00
2022-10-21T14:41:52.476Z,17.55
2022-10-21T14:43:54.679Z,18.90
2022-10-21T14:45:56.475Z,23.88
2022-10-21T14:48:08.353Z,24.05
2022-10-21T14:50:18.907Z,14.50
2022-10-21T14:52:42.929Z,17.60
2022-10-21T14:54:47.286Z,22.55
2022-10-21T14:56:49.095Z,20.77
2022-10-21T14:58:57.038Z,13.18
2022-10-21T15:01:00.420Z,18.48
2022-10-21T15:03:02.148Z,17.05
2022-10-21T15:05:34.641Z,18.08
2022-10-21T15:07:38.798Z,16.70
2022-10-21T15:10:18.965Z,17.60
2022-10-21T15:12:20.556Z,19.10
2022-10-21T15:14:28.843Z,14.75
2022-10-21T15:16:30.761Z,18.42
2022-10-21T15:18:43.816Z,26.55
2022-10-21T15:20:50.653Z,20.15
2022-10-21T15:22:53.425Z,15.65
2022-10-21T15:24:58.906Z,17.73
2022-10-21T15:27:01.801Z,17.27
2022-10-21T15:29:14.901Z,20.33
2022-10-21T15:31:23.860Z,16.33
2022-10-21T15:33:27.388Z,15.63
2022-10-21T15:35:28.941Z,21.40
2022-10-21T15:37:30.532Z,18.73
2022-10-21T15:39:32.275Z,19.92
2022-10-21T15:41:33.986Z,20.13
2022-10-21T15:43:35.590Z,23.45
2022-10-21T15:45:37.294Z,20.08
2022-10-21T15:47:39.070Z,23.75
2022-10-21T15:49:45.955Z,22.55
2022-10-21T15:51:48.690Z,18.92
2022-10-21T15:53:50.313Z,18.50
2022-10-21T15:55:51.877Z,21.58
2022-10-21T15:57:53.797Z,27.00
2022-10-21T15:59:55.394Z,23.00
2022-10-21T16:01:58.059Z,27.70
2022-10-21T16:04:00.086Z,24.80
2022-10-21T16:06:01.672Z,25.30
2022-10-21T16:08:03.406Z,27.85
2022-10-21T16:10:32.707Z,21.40
2022-10-21T16:12:34.380Z,24.40
2022-10-21T16:14:36.014Z,29.33
2022-10-21T16:16:39.226Z,31.27
2022-10-21T16:18:40.887Z,23.77
2022-10-21T16:20:43.243Z,21.35
2022-10-21T16:22:45.106Z,28.70
2022-10-21T16:24:46.732Z,18.60
2022-10-21T16:26:49.208Z,23.83
2022-10-21T16:28:52.328Z,27.13
2022-10-21T16:30:53.979Z,28.60
2022-10-21T16:32:57.252Z,38.25
2022-10-21T16:34:59.087Z,38.17
2022-10-21T16:37:01.611Z,30.70
2022-10-21T16:39:17.638Z,32.35
2022-10-21T16:41:21.684Z,32.63
2022-10-21T16:43:24.073Z,32.33
2022-10-21T16:45:29.045Z,31.35
2022-10-21T16:47:30.865Z,26.98
2022-10-21T16:49:33.122Z,29.23
2022-10-21T16:51:36.506Z,31.13
2022-10-21T16:55:40.185Z,25.13
2022-10-21T16:57:42.313Z,21.73
2022-10-21T16:59:44.136Z,22.80
2022-10-21T17:01:45.955Z,29.95
2022-10-21T17:03:47.560Z,24.23
2022-10-21T17:05:52.580Z,22.65
2022-10-21T17:07:54.976Z,21.40
2022-10-21T17:09:56.569Z,26.17
2022-10-21T17:11:58.144Z,25.23
2022-10-21T17:14:01.006Z,31.13
2022-10-21T17:16:02.676Z,22.70
2022-10-21T17:18:04.283Z,28.70
2022-10-21T17:20:06.441Z,31.50
2022-10-21T17:22:13.819Z,33.10
2022-10-21T17:24:17.732Z,31.45
2022-10-21T17:26:19.621Z,52.15
2022-10-21T17:28:21.620Z,34.38
2022-10-21T17:30:24.054Z,37.22
2022-10-21T17:32:25.664Z,34.25
2022-10-21T17:34:32.579Z,36.47
2022-10-21T17:36:38.103Z,31.45
2022-10-21T17:38:40.125Z,36.28
2022-10-21T17:40:41.882Z,28.98
2022-10-21T17:42:43.600Z,40.00
2022-10-21T17:44:45.281Z,33.28
2022-10-21T17:46:54.368Z,35.83
2022-10-21T17:48:57.512Z,27.40
2022-10-21T17:51:01.658Z,27.73
2022-10-21T17:53:03.310Z,28.55
2022-10-21T17:55:06.268Z,29.13
2022-10-21T17:57:07.993Z,34.27
2022-10-21T17:59:10.030Z,31.20
2022-10-21T18:01:13.335Z,31.63
2022-10-21T18:03:18.065Z,30.88
2022-10-21T18:05:19.850Z,28.95
2022-10-21T18:07:22.000Z,26.42
2022-10-21T18:09:23.746Z,34.38
2022-10-21T18:11:26.073Z,35.42
2022-10-21T18:13:30.020Z,38.65
2022-10-21T18:15:31.709Z,32.00
2022-10-21T18:17:34.513Z,33.72
2022-10-21T18:19:36.351Z,36.55
2022-10-21T18:21:38.987Z,32.22
2022-10-21T18:23:41.873Z,30.98
2022-10-21T18:25:43.567Z,29.47
2022-10-21T18:27:45.167Z,30.67
2022-10-21T18:29:46.945Z,37.90
2022-10-21T18:31:48.641Z,36.13
2022-10-21T18:33:50.188Z,35.15
2022-10-21T18:35:51.875Z,26.33
2022-10-21T18:37:53.532Z,28.10
2022-10-21T18:39:58.146Z,34.90
2022-10-21T18:42:00.876Z,26.80
2022-10-21T18:44:08.211Z,31.08
2022-10-21T18:46:09.967Z,36.55
2022-10-21T18:48:11.578Z,34.92
2022-10-21T18:50:14.346Z,30.02
2022-10-21T18:52:15.917Z,27.75
2022-10-21T18:54:17.628Z,32.25
2022-10-21T18:56:20.128Z,28.60
2022-10-21T18:58:21.746Z,26.77
2022-10-21T19:00:23.341Z,29.35
2022-10-21T19:02:25.208Z,28.92
2022-10-21T19:04:26.975Z,29.00
2022-10-21T19:06:42.943Z,26.33
2022-10-21T19:08:44.948Z,29.80
2022-10-21T19:10:47.079Z,31.25
2022-10-21T19:12:48.766Z,37.78
2022-10-21T19:14:50.799Z,34.42
2022-10-21T19:16:52.425Z,32.83
2022-10-21T19:18:54.853Z,36.63
2022-10-21T19:20:56.835Z,34.47
2022-10-21T19:22:58.450Z,30.38
2022-10-21T19:25:00.157Z,32.47
2022-10-21T19:27:01.796Z,36.70
2022-10-21T19:29:08.790Z,33.25
2022-10-21T19:31:13.488Z,35.30
2022-10-21T19:33:15.053Z,39.53
2022-10-21T19:35:16.719Z,36.70
2022-10-21T19:37:18.407Z,37.60
2022-10-21T19:39:20.187Z,36.22
2022-10-21T19:41:22.986Z,34.47
2022-10-21T19:43:25.821Z,27.40
2022-10-21T19:45:27.548Z,33.05
2022-10-21T19:47:31.209Z,31.20
2022-10-21T19:49:33.170Z,42.72
2022-10-21T19:51:35.530Z,37.53
2022-10-21T19:53:37.188Z,37.83
2022-10-21T19:55:38.941Z,41.00
2022-10-21T19:57:40.808Z,33.33
2022-10-21T19:59:42.424Z,35.35
2022-10-21T20:01:44.180Z,33.40
2022-10-21T20:03:47.101Z,31.63
2022-10-21T20:05:48.667Z,34.33
2022-10-21T20:07:50.235Z,33.80
2022-10-21T20:09:51.945Z,31.50
2022-10-21T20:11:55.010Z,33.63
2022-10-21T20:13:56.806Z,36.78
2022-10-21T20:15:59.291Z,32.63
2022-10-21T20:18:01.008Z,36.35
2022-10-21T20:20:02.590Z,40.10
2022-10-21T20:22:04.425Z,37.35
2022-10-21T20:24:06.309Z,35.42
2022-10-21T20:26:08.137Z,30.90
2022-10-21T20:28:09.809Z,32.95
2022-10-21T20:30:11.852Z,34.50
2022-10-21T20:32:13.447Z,31.00
2022-10-21T20:34:15.269Z,34.78
2022-10-21T20:36:23.040Z,30.10
2022-10-21T20:38:24.668Z,30.15
2022-10-21T20:40:27.531Z,31.38
2022-10-21T20:42:29.116Z,34.10
2022-10-21T20:44:30.742Z,37.28
2022-10-21T20:46:35.270Z,31.48
2022-10-21T20:48:40.830Z,36.38
2022-10-21T20:50:42.539Z,33.15
2022-10-21T20:52:44.210Z,36.13
2022-10-21T20:54:45.823Z,32.95
2022-10-21T20:56:47.425Z,33.03
2022-10-21T20:58:49.056Z,35.95
2022-10-21T21:00:50.724Z,33.78
2022-10-21T21:02:52.367Z,33.25
2022-10-21T21:04:55.164Z,32.53
2022-10-21T21:06:56.803Z,31.40
2022-10-21T21:09:28.874Z,30.95
2022-10-21T21:11:20.081Z,27.98
2022-10-21T21:13:21.665Z,31.95
2022-10-21T21:15:23.293Z,36.22
2022-10-21T21:17:25.129Z,37.05
2022-10-21T21:19:26.839Z,33.20
2022-10-21T21:21:29.328Z,34.40
2022-10-21T21:23:31.009Z,41.65
2022-10-21T21:25:32.642Z,35.33
2022-10-21T21:27:34.266Z,31.80
2022-10-21T21:29:36.232Z,32.53
2022-10-21T21:31:38.730Z,28.83
2022-10-21T21:33:40.659Z,31.90
2022-10-21T21:35:42.275Z,33.65
2022-10-21T21:37:43.944Z,30.27
2022-10-21T21:39:45.503Z,30.25
2022-10-21T21:41:47.170Z,28.73
2022-10-21T21:43:50.408Z,31.25
2022-10-21T21:45:51.989Z,31.65
2022-10-21T21:47:53.599Z,35.10
2022-10-21T21:49:55.211Z,31.08
2022-10-21T21:51:56.819Z,34.28
2022-10-21T21:53:59.029Z,27.42
2022-10-21T21:56:03.328Z,34.30
2022-10-21T21:58:05.681Z,35.83
2022-10-21T22:00:08.015Z,27.15
2022-10-21T22:02:10.067Z,36.90
2022-10-21T22:04:11.615Z,31.13
2022-10-21T22:06:14.124Z,29.92
2022-10-21T22:08:15.796Z,30.17
2022-10-21T22:10:17.915Z,30.45
2022-10-21T22:12:22.932Z,32.97
2022-10-21T22:14:24.875Z,30.52
2022-10-21T22:16:30.293Z,30.75
2022-10-21T22:18:32.508Z,33.97
2022-10-21T22:20:34.163Z,31.05
2022-10-21T22:22:36.145Z,31.33
2022-10-21T22:24:38.135Z,30.40
2022-10-21T22:26:39.772Z,34.75
2022-10-21T22:28:42.224Z,30.75
2022-10-21T22:30:43.884Z,31.60
2022-10-21T22:32:45.530Z,33.35
2022-10-21T22:34:47.187Z,33.97
2022-10-21T22:36:49.019Z,39.10
2022-10-21T22:38:50.647Z,38.53
2022-10-21T22:40:56.666Z,31.00
2022-10-21T22:42:58.349Z,33.65
2022-10-21T22:45:00.065Z,32.55
2022-10-21T22:47:01.681Z,32.13
2022-10-21T22:49:06.519Z,37.28
2022-10-21T22:51:08.111Z,30.05
2022-10-21T22:53:09.992Z,34.05
2022-10-21T22:55:11.728Z,31.92
2022-10-21T22:57:13.349Z,33.97
2022-10-21T22:59:14.969Z,32.30
2022-10-21T23:01:16.574Z,30.02
2022-10-21T23:03:19.766Z,32.00
2022-10-21T23:05:21.426Z,34.28
2022-10-21T23:07:23.116Z,30.77
2022-10-21T23:09:24.902Z,28.55
2022-10-21T23:11:27.084Z,60.42
2022-10-21T23:13:28.944Z,110.38
2022-10-21T23:15:30.533Z,61.40
2022-10-21T23:17:32.152Z,51.08
2022-10-21T23:19:33.808Z,41.10
2022-10-21T23:21:35.815Z,42.65
2022-10-21T23:23:37.498Z,34.00
2022-10-21T23:25:39.111Z,38.42
2022-10-21T23:27:40.787Z,34.30
2022-10-21T23:29:42.671Z,44.22
2022-10-21T23:31:44.325Z,45.65
2022-10-21T23:33:45.870Z,37.67
2022-10-21T23:35:47.482Z,30.23
2022-10-21T23:37:49.129Z,38.33
2022-10-21T23:39:50.744Z,32.42
2022-10-21T23:41:52.315Z,41.95
2022-10-21T23:43:54.210Z,30.08
2022-10-21T23:45:56.153Z,31.30
2022-10-21T23:47:57.844Z,28.33
2022-10-21T23:49:59.675Z,31.90
2022-10-21T23:52:01.632Z,34.20
2022-10-21T23:54:03.304Z,38.10
2022-10-21T23:56:05.512Z,29.27
2022-10-21T23:58:07.752Z,28.17
